sensor_id;sensor_type;location;lat;lon;timestamp;temperature;humidity
2539;DHT22;1280;49.760;9.664;2022-08-19T00:01:24;23.90;70.00
2539;DHT22;1280;49.760;9.664;2022-08-19T00:03:57;23.90;70.00
2539;DHT22;1280;49.760;9.664;2022-08-19T00:06:26;23.90;70.00
2539;DHT22;1280;49.760;9.664;2022-08-19T00:08:55;23.80;70.10
2539;DHT22;1280;49.760;9.664;2022-08-19T00:11:23;23.80;70.20
2539;DHT22;1280;49.760;9.664;2022-08-19T00:13:54;23.80;70.20
2539;DHT22;1280;49.760;9.664;2022-08-19T00:16:24;23.80;70.20
2539;DHT22;1280;49.760;9.664;2022-08-19T00:18:53;23.90;70.20
2539;DHT22;1280;49.760;9.664;2022-08-19T00:21:22;23.90;70.20
2539;DHT22;1280;49.760;9.664;2022-08-19T00:23:51;23.80;70.20
2539;DHT22;1280;49.760;9.664;2022-08-19T00:26:20;23.80;70.30
2539;DHT22;1280;49.760;9.664;2022-08-19T00:28:48;23.80;70.30
2539;DHT22;1280;49.760;9.664;2022-08-19T00:31:16;23.80;70.30
2539;DHT22;1280;49.760;9.664;2022-08-19T00:33:44;23.80;70.30
2539;DHT22;1280;49.760;9.664;2022-08-19T00:36:12;23.80;70.30
2539;DHT22;1280;49.760;9.664;2022-08-19T00:38:40;23.80;70.30
2539;DHT22;1280;49.760;9.664;2022-08-19T00:41:13;23.80;70.30
2539;DHT22;1280;49.760;9.664;2022-08-19T00:43:42;23.70;70.30
2539;DHT22;1280;49.760;9.664;2022-08-19T00:46:10;23.70;70.30
2539;DHT22;1280;49.760;9.664;2022-08-19T00:48:38;23.70;70.40
2539;DHT22;1280;49.760;9.664;2022-08-19T00:51:06;23.70;70.40
2539;DHT22;1280;49.760;9.664;2022-08-19T00:53:34;23.70;70.40
2539;DHT22;1280;49.760;9.664;2022-08-19T00:56:02;23.70;70.40
2539;DHT22;1280;49.760;9.664;2022-08-19T00:58:35;23.70;70.50
2539;DHT22;1280;49.760;9.664;2022-08-19T01:01:04;23.60;70.50
2539;DHT22;1280;49.760;9.664;2022-08-19T01:03:32;23.60;70.50
2539;DHT22;1280;49.760;9.664;2022-08-19T01:06:20;23.60;70.50
2539;DHT22;1280;49.760;9.664;2022-08-19T01:08:48;23.60;70.50
2539;DHT22;1280;49.760;9.664;2022-08-19T01:11:16;23.60;70.50
2539;DHT22;1280;49.760;9.664;2022-08-19T01:13:46;23.60;70.50
2539;DHT22;1280;49.760;9.664;2022-08-19T01:16:17;23.50;70.50
2539;DHT22;1280;49.760;9.664;2022-08-19T01:18:46;23.50;70.50
2539;DHT22;1280;49.760;9.664;2022-08-19T01:21:19;23.50;70.50
2539;DHT22;1280;49.760;9.664;2022-08-19T01:23:49;23.50;70.50
2539;DHT22;1280;49.760;9.664;2022-08-19T01:26:20;23.50;70.50
2539;DHT22;1280;49.760;9.664;2022-08-19T01:28:51;23.40;70.60
2539;DHT22;1280;49.760;9.664;2022-08-19T01:31:26;23.40;70.50
2539;DHT22;1280;49.760;9.664;2022-08-19T01:34:00;23.40;70.50
2539;DHT22;1280;49.760;9.664;2022-08-19T01:36:30;23.40;70.50
2539;DHT22;1280;49.760;9.664;2022-08-19T01:39:02;23.40;70.60
2539;DHT22;1280;49.760;9.664;2022-08-19T01:41:30;23.30;70.60
2539;DHT22;1280;49.760;9.664;2022-08-19T01:43:58;23.30;70.60
2539;DHT22;1280;49.760;9.664;2022-08-19T01:46:46;23.30;70.60
2539;DHT22;1280;49.760;9.664;2022-08-19T01:49:15;23.30;70.60
2539;DHT22;1280;49.760;9.664;2022-08-19T01:51:44;23.30;70.60
2539;DHT22;1280;49.760;9.664;2022-08-19T01:54:15;23.20;70.60
2539;DHT22;1280;49.760;9.664;2022-08-19T01:57:02;23.20;70.70
2539;DHT22;1280;49.760;9.664;2022-08-19T01:59:32;23.20;70.80
2539;DHT22;1280;49.760;9.664;2022-08-19T02:02:00;23.20;70.80
2539;DHT22;1280;49.760;9.664;2022-08-19T02:04:28;23.20;70.80
2539;DHT22;1280;49.760;9.664;2022-08-19T02:06:57;23.20;70.80
2539;DHT22;1280;49.760;9.664;2022-08-19T02:09:26;23.20;70.90
2539;DHT22;1280;49.760;9.664;2022-08-19T02:11:54;23.20;70.90
2539;DHT22;1280;49.760;9.664;2022-08-19T02:14:22;23.10;71.00
2539;DHT22;1280;49.760;9.664;2022-08-19T02:16:50;23.10;71.00
2539;DHT22;1280;49.760;9.664;2022-08-19T02:19:18;23.10;71.00
2539;DHT22;1280;49.760;9.664;2022-08-19T02:21:46;23.10;71.10
2539;DHT22;1280;49.760;9.664;2022-08-19T02:24:14;23.10;71.10
2539;DHT22;1280;49.760;9.664;2022-08-19T02:26:43;23.10;71.20
2539;DHT22;1280;49.760;9.664;2022-08-19T02:29:11;23.00;71.20
2539;DHT22;1280;49.760;9.664;2022-08-19T02:31:39;23.00;71.20
2539;DHT22;1280;49.760;9.664;2022-08-19T02:34:07;23.00;71.30
2539;DHT22;1280;49.760;9.664;2022-08-19T02:36:35;23.00;71.30
2539;DHT22;1280;49.760;9.664;2022-08-19T02:39:08;23.00;71.30
2539;DHT22;1280;49.760;9.664;2022-08-19T02:41:35;23.00;71.40
2539;DHT22;1280;49.760;9.664;2022-08-19T02:44:04;23.00;71.50
2539;DHT22;1280;49.760;9.664;2022-08-19T02:46:53;23.00;71.50
2539;DHT22;1280;49.760;9.664;2022-08-19T02:49:21;22.90;71.50
2539;DHT22;1280;49.760;9.664;2022-08-19T02:51:49;23.00;71.60
2539;DHT22;1280;49.760;9.664;2022-08-19T02:54:18;22.90;71.50
2539;DHT22;1280;49.760;9.664;2022-08-19T02:56:45;22.90;71.60
2539;DHT22;1280;49.760;9.664;2022-08-19T02:59:15;22.90;71.60
2539;DHT22;1280;49.760;9.664;2022-08-19T03:01:46;22.90;71.60
2539;DHT22;1280;49.760;9.664;2022-08-19T03:04:15;22.90;71.70
2539;DHT22;1280;49.760;9.664;2022-08-19T03:06:45;22.90;71.70
2539;DHT22;1280;49.760;9.664;2022-08-19T03:09:14;22.90;71.80
2539;DHT22;1280;49.760;9.664;2022-08-19T03:11:42;22.90;71.80
2539;DHT22;1280;49.760;9.664;2022-08-19T03:14:10;22.90;71.80
2539;DHT22;1280;49.760;9.664;2022-08-19T03:16:44;22.90;71.90
2539;DHT22;1280;49.760;9.664;2022-08-19T03:19:13;22.90;71.90
2539;DHT22;1280;49.760;9.664;2022-08-19T03:21:43;22.90;71.90
2539;DHT22;1280;49.760;9.664;2022-08-19T03:24:12;22.90;71.90
2539;DHT22;1280;49.760;9.664;2022-08-19T03:26:43;22.80;71.90
2539;DHT22;1280;49.760;9.664;2022-08-19T03:29:11;22.80;71.90
2539;DHT22;1280;49.760;9.664;2022-08-19T03:31:42;22.80;72.00
2539;DHT22;1280;49.760;9.664;2022-08-19T03:34:20;22.80;72.00
2539;DHT22;1280;49.760;9.664;2022-08-19T03:36:48;22.80;72.00
2539;DHT22;1280;49.760;9.664;2022-08-19T03:39:17;22.80;72.00
2539;DHT22;1280;49.760;9.664;2022-08-19T03:41:46;22.90;72.00
2539;DHT22;1280;49.760;9.664;2022-08-19T03:44:35;22.90;72.00
2539;DHT22;1280;49.760;9.664;2022-08-19T03:47:05;22.80;72.00
2539;DHT22;1280;49.760;9.664;2022-08-19T03:49:33;22.80;72.00
2539;DHT22;1280;49.760;9.664;2022-08-19T03:52:03;22.80;72.10
2539;DHT22;1280;49.760;9.664;2022-08-19T03:54:35;22.80;72.10
2539;DHT22;1280;49.760;9.664;2022-08-19T03:57:04;22.80;72.10
2539;DHT22;1280;49.760;9.664;2022-08-19T03:59:34;22.80;72.20
2539;DHT22;1280;49.760;9.664;2022-08-19T04:02:10;22.80;72.10
2539;DHT22;1280;49.760;9.664;2022-08-19T04:04:40;22.80;72.10
2539;DHT22;1280;49.760;9.664;2022-08-19T04:07:10;22.80;72.20
2539;DHT22;1280;49.760;9.664;2022-08-19T04:09:39;22.70;72.20
2539;DHT22;1280;49.760;9.664;2022-08-19T04:12:08;22.80;72.20
2539;DHT22;1280;49.760;9.664;2022-08-19T04:14:36;22.70;72.20
2539;DHT22;1280;49.760;9.664;2022-08-19T04:17:05;22.70;72.30
2539;DHT22;1280;49.760;9.664;2022-08-19T04:19:35;22.70;72.30
2539;DHT22;1280;49.760;9.664;2022-08-19T04:22:04;22.70;72.30
2539;DHT22;1280;49.760;9.664;2022-08-19T04:24:35;22.70;72.40
2539;DHT22;1280;49.760;9.664;2022-08-19T04:27:07;22.70;72.40
2539;DHT22;1280;49.760;9.664;2022-08-19T04:30:01;22.70;72.40
2539;DHT22;1280;49.760;9.664;2022-08-19T04:32:29;22.70;72.50
2539;DHT22;1280;49.760;9.664;2022-08-19T04:34:59;22.80;72.50
2539;DHT22;1280;49.760;9.664;2022-08-19T04:37:45;22.80;72.50
2539;DHT22;1280;49.760;9.664;2022-08-19T04:40:13;22.80;72.50
2539;DHT22;1280;49.760;9.664;2022-08-19T04:42:58;22.80;72.60
2539;DHT22;1280;49.760;9.664;2022-08-19T04:45:27;22.80;72.60
2539;DHT22;1280;49.760;9.664;2022-08-19T04:48:05;22.80;72.60
2539;DHT22;1280;49.760;9.664;2022-08-19T04:50:56;22.80;72.60
2539;DHT22;1280;49.760;9.664;2022-08-19T04:53:25;22.80;72.70
2539;DHT22;1280;49.760;9.664;2022-08-19T04:55:55;22.80;72.70
2539;DHT22;1280;49.760;9.664;2022-08-19T04:58:25;22.90;72.70
2539;DHT22;1280;49.760;9.664;2022-08-19T05:00:54;22.90;72.70
2539;DHT22;1280;49.760;9.664;2022-08-19T05:03:22;22.90;72.70
2539;DHT22;1280;49.760;9.664;2022-08-19T05:05:57;22.90;72.70
2539;DHT22;1280;49.760;9.664;2022-08-19T05:08:25;22.90;72.80
2539;DHT22;1280;49.760;9.664;2022-08-19T05:10:56;22.90;72.80
2539;DHT22;1280;49.760;9.664;2022-08-19T05:13:25;22.90;72.80
2539;DHT22;1280;49.760;9.664;2022-08-19T05:15:54;22.90;72.90
2539;DHT22;1280;49.760;9.664;2022-08-19T05:18:22;22.90;72.90
2539;DHT22;1280;49.760;9.664;2022-08-19T05:21:11;22.90;72.90
2539;DHT22;1280;49.760;9.664;2022-08-19T05:23:57;22.90;72.90
2539;DHT22;1280;49.760;9.664;2022-08-19T05:26:26;22.90;73.00
2539;DHT22;1280;49.760;9.664;2022-08-19T05:28:54;22.90;73.10
2539;DHT22;1280;49.760;9.664;2022-08-19T05:31:22;23.00;73.10
2539;DHT22;1280;49.760;9.664;2022-08-19T05:33:50;23.00;73.10
2539;DHT22;1280;49.760;9.664;2022-08-19T05:36:21;23.00;73.10
2539;DHT22;1280;49.760;9.664;2022-08-19T05:38:48;23.00;73.10
2539;DHT22;1280;49.760;9.664;2022-08-19T05:41:16;23.00;73.10
2539;DHT22;1280;49.760;9.664;2022-08-19T05:43:44;23.00;73.00
2539;DHT22;1280;49.760;9.664;2022-08-19T05:46:16;23.00;73.00
2539;DHT22;1280;49.760;9.664;2022-08-19T05:48:54;23.00;72.90
2539;DHT22;1280;49.760;9.664;2022-08-19T05:51:24;23.00;73.00
2539;DHT22;1280;49.760;9.664;2022-08-19T05:53:55;23.00;72.90
2539;DHT22;1280;49.760;9.664;2022-08-19T05:56:23;23.10;73.00
2539;DHT22;1280;49.760;9.664;2022-08-19T05:58:51;23.10;73.00
2539;DHT22;1280;49.760;9.664;2022-08-19T06:01:20;23.20;73.00
2539;DHT22;1280;49.760;9.664;2022-08-19T06:03:48;23.20;72.90
2539;DHT22;1280;49.760;9.664;2022-08-19T06:06:17;23.20;73.00
2539;DHT22;1280;49.760;9.664;2022-08-19T06:08:46;23.20;73.00
2539;DHT22;1280;49.760;9.664;2022-08-19T06:11:19;23.20;72.90
2539;DHT22;1280;49.760;9.664;2022-08-19T06:13:49;23.20;72.90
2539;DHT22;1280;49.760;9.664;2022-08-19T06:16:26;23.20;72.90
2539;DHT22;1280;49.760;9.664;2022-08-19T06:18:55;23.20;72.90
2539;DHT22;1280;49.760;9.664;2022-08-19T06:21:26;23.20;72.90
2539;DHT22;1280;49.760;9.664;2022-08-19T06:23:56;23.30;72.90
2539;DHT22;1280;49.760;9.664;2022-08-19T06:26:25;23.30;73.00
2539;DHT22;1280;49.760;9.664;2022-08-19T06:28:54;23.30;73.00
2539;DHT22;1280;49.760;9.664;2022-08-19T06:31:24;23.30;73.00
2539;DHT22;1280;49.760;9.664;2022-08-19T06:33:52;23.30;73.00
2539;DHT22;1280;49.760;9.664;2022-08-19T06:36:22;23.40;72.90
2539;DHT22;1280;49.760;9.664;2022-08-19T06:38:58;23.40;72.90
2539;DHT22;1280;49.760;9.664;2022-08-19T06:41:26;23.50;72.90
2539;DHT22;1280;49.760;9.664;2022-08-19T06:43:55;23.50;72.90
2539;DHT22;1280;49.760;9.664;2022-08-19T06:46:23;23.50;72.80
2539;DHT22;1280;49.760;9.664;2022-08-19T06:48:51;23.50;72.80
2539;DHT22;1280;49.760;9.664;2022-08-19T06:51:21;23.60;72.80
2539;DHT22;1280;49.760;9.664;2022-08-19T06:53:52;23.60;72.80
2539;DHT22;1280;49.760;9.664;2022-08-19T06:56:24;23.60;72.70
2539;DHT22;1280;49.760;9.664;2022-08-19T06:58:57;23.60;72.70
2539;DHT22;1280;49.760;9.664;2022-08-19T07:01:25;23.60;72.60
2539;DHT22;1280;49.760;9.664;2022-08-19T07:03:53;23.60;72.70
2539;DHT22;1280;49.760;9.664;2022-08-19T07:06:23;23.60;72.80
2539;DHT22;1280;49.760;9.664;2022-08-19T07:09:12;23.60;72.90
2539;DHT22;1280;49.760;9.664;2022-08-19T07:11:46;23.50;72.90
2539;DHT22;1280;49.760;9.664;2022-08-19T07:14:15;23.50;72.90
2539;DHT22;1280;49.760;9.664;2022-08-19T07:16:46;23.50;72.90
2539;DHT22;1280;49.760;9.664;2022-08-19T07:19:16;23.50;73.00
2539;DHT22;1280;49.760;9.664;2022-08-19T07:21:47;23.50;73.00
2539;DHT22;1280;49.760;9.664;2022-08-19T07:24:16;23.50;73.00
2539;DHT22;1280;49.760;9.664;2022-08-19T07:26:46;23.40;73.20
2539;DHT22;1280;49.760;9.664;2022-08-19T07:29:19;23.40;73.20
2539;DHT22;1280;49.760;9.664;2022-08-19T07:31:52;23.50;73.30
2539;DHT22;1280;49.760;9.664;2022-08-19T07:34:23;23.50;73.40
2539;DHT22;1280;49.760;9.664;2022-08-19T07:36:51;23.50;73.40
2539;DHT22;1280;49.760;9.664;2022-08-19T07:39:23;23.60;73.40
2539;DHT22;1280;49.760;9.664;2022-08-19T07:41:53;23.60;73.40
2539;DHT22;1280;49.760;9.664;2022-08-19T07:44:22;23.60;73.40
2539;DHT22;1280;49.760;9.664;2022-08-19T07:46:52;23.60;73.50
2539;DHT22;1280;49.760;9.664;2022-08-19T07:49:20;23.70;73.50
2539;DHT22;1280;49.760;9.664;2022-08-19T07:51:50;23.70;73.40
2539;DHT22;1280;49.760;9.664;2022-08-19T07:54:19;23.80;73.40
2539;DHT22;1280;49.760;9.664;2022-08-19T07:56:48;23.80;73.50
2539;DHT22;1280;49.760;9.664;2022-08-19T07:59:20;23.90;73.50
2539;DHT22;1280;49.760;9.664;2022-08-19T08:01:49;23.90;73.40
2539;DHT22;1280;49.760;9.664;2022-08-19T08:04:18;23.90;73.50
2539;DHT22;1280;49.760;9.664;2022-08-19T08:07:05;23.90;73.60
2539;DHT22;1280;49.760;9.664;2022-08-19T08:09:57;24.00;73.50
2539;DHT22;1280;49.760;9.664;2022-08-19T08:12:31;24.00;73.40
2539;DHT22;1280;49.760;9.664;2022-08-19T08:15:08;24.00;73.40
2539;DHT22;1280;49.760;9.664;2022-08-19T08:17:39;24.10;73.30
2539;DHT22;1280;49.760;9.664;2022-08-19T08:20:17;24.10;73.20
2539;DHT22;1280;49.760;9.664;2022-08-19T08:22:46;24.10;73.30
2539;DHT22;1280;49.760;9.664;2022-08-19T08:25:32;24.10;73.20
2539;DHT22;1280;49.760;9.664;2022-08-19T08:28:22;24.20;73.10
2539;DHT22;1280;49.760;9.664;2022-08-19T08:30:53;24.20;73.00
2539;DHT22;1280;49.760;9.664;2022-08-19T08:33:24;24.20;72.90
2539;DHT22;1280;49.760;9.664;2022-08-19T08:36:01;24.20;72.90
2539;DHT22;1280;49.760;9.664;2022-08-19T08:38:30;24.20;72.90
2539;DHT22;1280;49.760;9.664;2022-08-19T08:41:11;24.20;72.90
2539;DHT22;1280;49.760;9.664;2022-08-19T08:43:47;24.20;72.70
2539;DHT22;1280;49.760;9.664;2022-08-19T08:46:23;24.20;72.70
2539;DHT22;1280;49.760;9.664;2022-08-19T08:49:02;24.20;72.40
2539;DHT22;1280;49.760;9.664;2022-08-19T08:51:41;24.20;72.40
2539;DHT22;1280;49.760;9.664;2022-08-19T08:54:14;24.20;72.40
2539;DHT22;1280;49.760;9.664;2022-08-19T08:56:46;24.20;72.40
2539;DHT22;1280;49.760;9.664;2022-08-19T08:59:21;24.20;72.30
2539;DHT22;1280;49.760;9.664;2022-08-19T09:01:50;24.20;72.20
2539;DHT22;1280;49.760;9.664;2022-08-19T09:04:18;24.20;72.00
2539;DHT22;1280;49.760;9.664;2022-08-19T09:07:09;24.20;72.00
2539;DHT22;1280;49.760;9.664;2022-08-19T09:10:06;24.20;71.80
2539;DHT22;1280;49.760;9.664;2022-08-19T09:12:42;24.20;71.80
2539;DHT22;1280;49.760;9.664;2022-08-19T09:15:13;24.20;71.70
2539;DHT22;1280;49.760;9.664;2022-08-19T09:17:44;24.20;71.60
2539;DHT22;1280;49.760;9.664;2022-08-19T09:20:19;24.30;71.60
2539;DHT22;1280;49.760;9.664;2022-08-19T09:22:48;24.30;71.50
2539;DHT22;1280;49.760;9.664;2022-08-19T09:25:19;24.30;71.30
2539;DHT22;1280;49.760;9.664;2022-08-19T09:27:54;24.40;70.90
2539;DHT22;1280;49.760;9.664;2022-08-19T09:30:32;24.30;70.20
2539;DHT22;1280;49.760;9.664;2022-08-19T09:33:03;24.30;70.00
2539;DHT22;1280;49.760;9.664;2022-08-19T09:35:31;24.30;70.00
2539;DHT22;1280;49.760;9.664;2022-08-19T09:38:18;24.40;69.80
2539;DHT22;1280;49.760;9.664;2022-08-19T09:40:46;24.40;69.60
2539;DHT22;1280;49.760;9.664;2022-08-19T09:43:14;24.50;69.20
2539;DHT22;1280;49.760;9.664;2022-08-19T09:45:59;24.50;69.10
2539;DHT22;1280;49.760;9.664;2022-08-19T09:48:29;24.40;68.50
2539;DHT22;1280;49.760;9.664;2022-08-19T09:51:03;24.40;68.50
2539;DHT22;1280;49.760;9.664;2022-08-19T09:53:31;24.40;67.90
2539;DHT22;1280;49.760;9.664;2022-08-19T09:55:59;24.30;68.00
2539;DHT22;1280;49.760;9.664;2022-08-19T09:58:30;24.20;67.90
2539;DHT22;1280;49.760;9.664;2022-08-19T10:00:58;24.20;68.00
2539;DHT22;1280;49.760;9.664;2022-08-19T10:03:29;24.30;68.10
2539;DHT22;1280;49.760;9.664;2022-08-19T10:05:59;24.30;68.10
2539;DHT22;1280;49.760;9.664;2022-08-19T10:08:29;24.40;67.80
2539;DHT22;1280;49.760;9.664;2022-08-19T10:10:57;24.40;67.80
2539;DHT22;1280;49.760;9.664;2022-08-19T10:13:46;24.50;67.70
2539;DHT22;1280;49.760;9.664;2022-08-19T10:16:17;24.60;67.60
2539;DHT22;1280;49.760;9.664;2022-08-19T10:18:48;24.70;67.50
2539;DHT22;1280;49.760;9.664;2022-08-19T10:21:26;24.70;67.40
2539;DHT22;1280;49.760;9.664;2022-08-19T10:24:00;24.70;67.10
2539;DHT22;1280;49.760;9.664;2022-08-19T10:26:32;24.70;67.00
2539;DHT22;1280;49.760;9.664;2022-08-19T10:29:00;24.70;67.20
2539;DHT22;1280;49.760;9.664;2022-08-19T10:31:30;24.70;67.20
2539;DHT22;1280;49.760;9.664;2022-08-19T10:34:19;24.70;67.10
2539;DHT22;1280;49.760;9.664;2022-08-19T10:36:54;24.70;67.00
2539;DHT22;1280;49.760;9.664;2022-08-19T10:39:27;24.70;67.00
2539;DHT22;1280;49.760;9.664;2022-08-19T10:41:57;24.70;67.10
2539;DHT22;1280;49.760;9.664;2022-08-19T10:44:25;24.70;67.10
2539;DHT22;1280;49.760;9.664;2022-08-19T10:46:58;24.80;67.10
2539;DHT22;1280;49.760;9.664;2022-08-19T10:49:28;24.80;67.10
2539;DHT22;1280;49.760;9.664;2022-08-19T10:51:56;24.90;67.10
2539;DHT22;1280;49.760;9.664;2022-08-19T10:54:47;24.90;67.20
2539;DHT22;1280;49.760;9.664;2022-08-19T10:57:34;25.00;67.20
2539;DHT22;1280;49.760;9.664;2022-08-19T11:00:23;25.10;67.10
2539;DHT22;1280;49.760;9.664;2022-08-19T11:02:52;25.10;67.00
2539;DHT22;1280;49.760;9.664;2022-08-19T11:05:21;25.10;66.80
2539;DHT22;1280;49.760;9.664;2022-08-19T11:07:50;25.10;66.60
2539;DHT22;1280;49.760;9.664;2022-08-19T11:10:19;25.10;66.40
2539;DHT22;1280;49.760;9.664;2022-08-19T11:12:49;25.10;66.30
2539;DHT22;1280;49.760;9.664;2022-08-19T11:15:21;25.00;66.30
2539;DHT22;1280;49.760;9.664;2022-08-19T11:17:49;25.00;66.30
2539;DHT22;1280;49.760;9.664;2022-08-19T11:20:22;25.00;66.30
2539;DHT22;1280;49.760;9.664;2022-08-19T11:22:52;25.00;66.30
2539;DHT22;1280;49.760;9.664;2022-08-19T11:25:20;25.00;66.10
2539;DHT22;1280;49.760;9.664;2022-08-19T11:27:48;25.00;65.90
2539;DHT22;1280;49.760;9.664;2022-08-19T11:30:17;25.00;66.10
2539;DHT22;1280;49.760;9.664;2022-08-19T11:32:45;25.10;66.20
2539;DHT22;1280;49.760;9.664;2022-08-19T11:35:15;25.10;65.90
2539;DHT22;1280;49.760;9.664;2022-08-19T11:37:47;25.10;65.90
2539;DHT22;1280;49.760;9.664;2022-08-19T11:40:15;25.20;65.90
2539;DHT22;1280;49.760;9.664;2022-08-19T11:42:43;25.20;65.90
2539;DHT22;1280;49.760;9.664;2022-08-19T11:45:23;25.30;65.50
2539;DHT22;1280;49.760;9.664;2022-08-19T11:47:51;25.30;65.40
2539;DHT22;1280;49.760;9.664;2022-08-19T11:50:20;25.40;65.40
2539;DHT22;1280;49.760;9.664;2022-08-19T11:52:49;25.40;65.30
2539;DHT22;1280;49.760;9.664;2022-08-19T11:55:18;25.40;64.80
2539;DHT22;1280;49.760;9.664;2022-08-19T11:57:46;25.50;64.90
2539;DHT22;1280;49.760;9.664;2022-08-19T12:00:14;25.60;64.80
2539;DHT22;1280;49.760;9.664;2022-08-19T12:02:42;25.70;64.60
2539;DHT22;1280;49.760;9.664;2022-08-19T12:05:10;25.70;64.50
2539;DHT22;1280;49.760;9.664;2022-08-19T12:07:39;25.70;64.40
2539;DHT22;1280;49.760;9.664;2022-08-19T12:10:11;25.80;64.30
2539;DHT22;1280;49.760;9.664;2022-08-19T12:12:44;25.80;64.20
2539;DHT22;1280;49.760;9.664;2022-08-19T12:15:21;25.80;64.10
2539;DHT22;1280;49.760;9.664;2022-08-19T12:17:49;25.80;63.90
2539;DHT22;1280;49.760;9.664;2022-08-19T12:20:24;25.80;63.80
2539;DHT22;1280;49.760;9.664;2022-08-19T12:22:52;25.80;63.70
2539;DHT22;1280;49.760;9.664;2022-08-19T12:25:23;25.80;63.50
2539;DHT22;1280;49.760;9.664;2022-08-19T12:27:51;25.80;63.30
2539;DHT22;1280;49.760;9.664;2022-08-19T12:30:24;25.80;63.20
2539;DHT22;1280;49.760;9.664;2022-08-19T12:32:52;25.80;63.00
2539;DHT22;1280;49.760;9.664;2022-08-19T12:35:20;25.80;62.60
2539;DHT22;1280;49.760;9.664;2022-08-19T12:37:48;25.80;62.80
2539;DHT22;1280;49.760;9.664;2022-08-19T12:40:24;25.70;62.60
2539;DHT22;1280;49.760;9.664;2022-08-19T12:42:52;25.70;62.60
2539;DHT22;1280;49.760;9.664;2022-08-19T12:45:20;25.70;62.60
2539;DHT22;1280;49.760;9.664;2022-08-19T12:47:49;25.70;62.70
2539;DHT22;1280;49.760;9.664;2022-08-19T12:50:20;25.80;62.60
2539;DHT22;1280;49.760;9.664;2022-08-19T12:52:48;25.80;62.40
2539;DHT22;1280;49.760;9.664;2022-08-19T12:55:17;25.80;62.50
2539;DHT22;1280;49.760;9.664;2022-08-19T12:57:47;25.80;62.40
2539;DHT22;1280;49.760;9.664;2022-08-19T13:00:18;25.90;62.30
2539;DHT22;1280;49.760;9.664;2022-08-19T13:02:50;25.90;62.20
2539;DHT22;1280;49.760;9.664;2022-08-19T13:05:20;25.80;62.20
2539;DHT22;1280;49.760;9.664;2022-08-19T13:07:50;25.80;62.20
2539;DHT22;1280;49.760;9.664;2022-08-19T13:10:21;25.80;62.10
2539;DHT22;1280;49.760;9.664;2022-08-19T13:12:51;25.80;62.10
2539;DHT22;1280;49.760;9.664;2022-08-19T13:15:21;25.70;62.20
2539;DHT22;1280;49.760;9.664;2022-08-19T13:17:51;25.70;62.20
2539;DHT22;1280;49.760;9.664;2022-08-19T13:20:20;25.70;62.30
2539;DHT22;1280;49.760;9.664;2022-08-19T13:22:49;25.70;62.30
2539;DHT22;1280;49.760;9.664;2022-08-19T13:25:17;25.80;62.30
2539;DHT22;1280;49.760;9.664;2022-08-19T13:27:47;25.80;62.20
2539;DHT22;1280;49.760;9.664;2022-08-19T13:30:19;25.90;62.20
2539;DHT22;1280;49.760;9.664;2022-08-19T13:33:05;25.90;62.20
2539;DHT22;1280;49.760;9.664;2022-08-19T13:35:45;26.00;62.10
2539;DHT22;1280;49.760;9.664;2022-08-19T13:38:14;26.10;62.10
2539;DHT22;1280;49.760;9.664;2022-08-19T13:40:43;26.20;62.10
2539;DHT22;1280;49.760;9.664;2022-08-19T13:43:11;26.30;61.60
2539;DHT22;1280;49.760;9.664;2022-08-19T13:45:52;26.40;61.50
2539;DHT22;1280;49.760;9.664;2022-08-19T13:48:23;26.50;61.40
2539;DHT22;1280;49.760;9.664;2022-08-19T13:50:52;26.50;61.20
2539;DHT22;1280;49.760;9.664;2022-08-19T13:53:21;26.60;61.10
2539;DHT22;1280;49.760;9.664;2022-08-19T13:55:49;26.60;60.70
2539;DHT22;1280;49.760;9.664;2022-08-19T13:58:17;26.60;60.70
2539;DHT22;1280;49.760;9.664;2022-08-19T14:00:46;26.60;60.60
2539;DHT22;1280;49.760;9.664;2022-08-19T14:03:15;26.60;60.60
2539;DHT22;1280;49.760;9.664;2022-08-19T14:05:43;26.60;60.50
2539;DHT22;1280;49.760;9.664;2022-08-19T14:08:13;26.60;60.30
2539;DHT22;1280;49.760;9.664;2022-08-19T14:10:41;26.70;60.40
2539;DHT22;1280;49.760;9.664;2022-08-19T14:13:21;26.70;60.30
2539;DHT22;1280;49.760;9.664;2022-08-19T14:15:50;26.70;60.20
2539;DHT22;1280;49.760;9.664;2022-08-19T14:18:20;26.70;60.20
2539;DHT22;1280;49.760;9.664;2022-08-19T14:20:51;26.70;60.10
2539;DHT22;1280;49.760;9.664;2022-08-19T14:23:20;26.70;60.10
2539;DHT22;1280;49.760;9.664;2022-08-19T14:25:48;26.80;60.10
2539;DHT22;1280;49.760;9.664;2022-08-19T14:28:16;26.80;59.90
2539;DHT22;1280;49.760;9.664;2022-08-19T14:30:44;26.80;59.90
2539;DHT22;1280;49.760;9.664;2022-08-19T14:33:12;26.80;59.90
2539;DHT22;1280;49.760;9.664;2022-08-19T14:35:42;26.80;59.90
2539;DHT22;1280;49.760;9.664;2022-08-19T14:38:15;26.80;59.90
2539;DHT22;1280;49.760;9.664;2022-08-19T14:40:53;26.80;59.90
2539;DHT22;1280;49.760;9.664;2022-08-19T14:43:21;26.90;59.60
2539;DHT22;1280;49.760;9.664;2022-08-19T14:45:49;26.80;59.60
2539;DHT22;1280;49.760;9.664;2022-08-19T14:48:18;26.90;59.70
2539;DHT22;1280;49.760;9.664;2022-08-19T14:50:56;26.90;59.70
2539;DHT22;1280;49.760;9.664;2022-08-19T14:53:24;26.90;59.60
2539;DHT22;1280;49.760;9.664;2022-08-19T14:55:52;26.90;59.70
2539;DHT22;1280;49.760;9.664;2022-08-19T14:58:20;27.00;59.70
2539;DHT22;1280;49.760;9.664;2022-08-19T15:00:56;27.10;59.60
2539;DHT22;1280;49.760;9.664;2022-08-19T15:03:24;27.20;59.40
2539;DHT22;1280;49.760;9.664;2022-08-19T15:05:52;27.20;59.40
2539;DHT22;1280;49.760;9.664;2022-08-19T15:08:21;27.20;59.30
2539;DHT22;1280;49.760;9.664;2022-08-19T15:10:51;27.20;59.30
2539;DHT22;1280;49.760;9.664;2022-08-19T15:13:19;27.20;59.20
2539;DHT22;1280;49.760;9.664;2022-08-19T15:15:48;27.20;59.10
2539;DHT22;1280;49.760;9.664;2022-08-19T15:18:16;27.20;58.80
2539;DHT22;1280;49.760;9.664;2022-08-19T15:20:43;27.20;58.90
2539;DHT22;1280;49.760;9.664;2022-08-19T15:23:13;27.20;58.80
2539;DHT22;1280;49.760;9.664;2022-08-19T15:25:43;27.20;58.80
2539;DHT22;1280;49.760;9.664;2022-08-19T15:28:11;27.20;58.80
2539;DHT22;1280;49.760;9.664;2022-08-19T15:30:40;27.20;58.80
2539;DHT22;1280;49.760;9.664;2022-08-19T15:33:11;27.10;58.80
2539;DHT22;1280;49.760;9.664;2022-08-19T15:35:41;27.10;58.80
2539;DHT22;1280;49.760;9.664;2022-08-19T15:38:09;27.10;58.80
2539;DHT22;1280;49.760;9.664;2022-08-19T15:40:40;27.10;58.80
2539;DHT22;1280;49.760;9.664;2022-08-19T15:43:09;27.10;58.80
2539;DHT22;1280;49.760;9.664;2022-08-19T15:45:37;27.10;58.80
2539;DHT22;1280;49.760;9.664;2022-08-19T15:48:06;27.10;58.80
2539;DHT22;1280;49.760;9.664;2022-08-19T15:50:34;27.10;58.80
2539;DHT22;1280;49.760;9.664;2022-08-19T15:53:05;27.00;58.90
2539;DHT22;1280;49.760;9.664;2022-08-19T15:55:36;27.00;59.00
2539;DHT22;1280;49.760;9.664;2022-08-19T15:58:07;27.00;58.90
2539;DHT22;1280;49.760;9.664;2022-08-19T16:00:57;27.00;58.90
2539;DHT22;1280;49.760;9.664;2022-08-19T16:03:40;26.90;59.00
2539;DHT22;1280;49.760;9.664;2022-08-19T16:06:25;26.90;59.10
2539;DHT22;1280;49.760;9.664;2022-08-19T16:08:55;26.90;59.20
2539;DHT22;1280;49.760;9.664;2022-08-19T16:11:26;26.90;59.20
2539;DHT22;1280;49.760;9.664;2022-08-19T16:13:56;26.90;59.20
2539;DHT22;1280;49.760;9.664;2022-08-19T16:16:28;26.90;59.10
2539;DHT22;1280;49.760;9.664;2022-08-19T16:19:01;26.90;59.00
2539;DHT22;1280;49.760;9.664;2022-08-19T16:21:29;26.90;59.00
2539;DHT22;1280;49.760;9.664;2022-08-19T16:24:00;26.90;59.10
2539;DHT22;1280;49.760;9.664;2022-08-19T16:26:28;26.90;59.10
2539;DHT22;1280;49.760;9.664;2022-08-19T16:28:58;26.80;59.10